Dotti J — WCAE — position and weather

sailwx.info

Track history (hours):
 
Tides and Currents Weather Stations Pressure Air Temp Water Temp Dewpoint Dewpoint Depression Visibility Wind Speed Wind Dir Waves Ship Positions

Dotti J

Owner: PRECON MARINE INC, CHESAPEAKE, VA. More information available from US FCC via Universal Licensing System and Coast Guard Vessel Documentation Center.

Last reported at 2017-Nov-18 15:09 UTC. Time now 2017-Nov-19 12:15 UTC.
Position N 38°47' W 076°22'.

Length 20 m; draft 2.9 m.

Type: Tug. MMSI: 366880470.

Date/timePositionNaut miles runAvg speedWind from/ knotsBaromVisibWave heightAir tempDewpointWater temp
2017-Nov-18 15:09N 38°47' W 076°22'0 0.0
2017-Nov-18 14:45N 38°47' W 076°22'0 0.0
2017-Nov-18 14:30N 38°47' W 076°22'0 0.0
2017-Nov-18 13:55N 38°47' W 076°22'0 0.0
2017-Nov-18 13:30N 38°47' W 076°22'1 0.3
2017-Nov-18 10:41N 38°46' W 076°21'0 0.0
2017-Nov-18 10:28N 38°46' W 076°21'0 0.0
2017-Nov-18 09:43N 38°46' W 076°21'5 0.8
2017-Nov-18 03:36N 38°50' W 076°24'2 6.6
2017-Nov-18 03:22N 38°52' W 076°24'3 6.7
2017-Nov-18 02:58N 38°55' W 076°24'3 6.7
2017-Nov-18 02:30N 38°58' W 076°23'3 6.4
2017-Nov-18 02:00N 39°01' W 076°23'3 6.0
2017-Nov-18 01:30N 39°04' W 076°21'3 5.9
2017-Nov-18 01:00N 39°07' W 076°20'3 5.5
2017-Nov-18 00:30N 39°09' W 076°19'3 5.2
2017-Nov-17 23:56N 39°12' W 076°17'9 4.8
2017-Nov-17 22:01N 39°20' W 076°12'0 5.0
2017-Nov-17 21:57N 39°20' W 076°11'2 5.2
2017-Nov-17 21:30N 39°21' W 076°09'3 5.5
2017-Nov-17 21:00N 39°23' W 076°06'3 5.6
2017-Nov-17 20:30N 39°25' W 076°03'3 5.6
2017-Nov-17 20:00N 39°27' W 076°02'3 5.7
2017-Nov-17 19:29N 39°29' W 076°05'3 6.1
2017-Nov-17 19:00N 39°32' W 076°05'2 4.6
2017-Nov-17 18:30N 39°34' W 076°06'0 0.0
2017-Nov-17 18:00N 39°34' W 076°06'0 0.1
2017-Nov-17 17:30N 39°34' W 076°06'0 0.0
2017-Nov-17 17:00N 39°34' W 076°06'0 0.0
2017-Nov-17 16:30N 39°34' W 076°06'0 0.0
2017-Nov-17 16:00N 39°34' W 076°06'0 0.0
2017-Nov-17 15:31N 39°34' W 076°06'0 0.0
2017-Nov-17 14:58N 39°34' W 076°06'0 0.0
2017-Nov-17 14:30N 39°34' W 076°06'0 0.0
2017-Nov-17 14:00N 39°34' W 076°06'0 0.0
2017-Nov-17 13:30N 39°34' W 076°06'0 0.0
2017-Nov-17 13:00N 39°34' W 076°06'0 0.0
2017-Nov-17 12:30N 39°34' W 076°06'0 0.0
2017-Nov-17 12:00N 39°34' W 076°06'0 0.0
2017-Nov-17 11:30N 39°34' W 076°06'0 0.0
2017-Nov-17 11:00N 39°34' W 076°06'0 0.0
2017-Nov-17 10:30N 39°34' W 076°06'0 0.0
2017-Nov-17 10:01N 39°34' W 076°06'0 0.0
2017-Nov-17 09:30N 39°34' W 076°06'0 0.0
2017-Nov-17 09:00N 39°34' W 076°06'0 0.0
2017-Nov-17 08:30N 39°34' W 076°06'0 0.0
2017-Nov-17 08:00N 39°34' W 076°06'0 0.0
2017-Nov-17 07:30N 39°34' W 076°06'0 0.0
2017-Nov-17 07:00N 39°34' W 076°06'0 0.0
2017-Nov-17 06:31N 39°34' W 076°06'0 0.0
2017-Nov-17 06:00N 39°34' W 076°06'0 0.0
2017-Nov-17 05:30N 39°34' W 076°06'0 0.0
2017-Nov-17 05:00N 39°34' W 076°06'0 0.0
2017-Nov-17 04:30N 39°34' W 076°06'0 0.0
2017-Nov-17 04:00N 39°34' W 076°06'0 0.0
2017-Nov-17 03:30N 39°34' W 076°06'0 0.0
2017-Nov-17 03:00N 39°34' W 076°06'0 0.0
2017-Nov-17 02:30N 39°34' W 076°06'0 0.0
2017-Nov-16 22:30N 39°34' W 076°06'0 0.0
2017-Nov-16 22:01N 39°34' W 076°06'0 0.1
2017-Nov-16 21:30N 39°34' W 076°06'0 0.6
2017-Nov-16 21:01N 39°34' W 076°06'2 3.8
2017-Nov-16 20:30N 39°33' W 076°05'2 4.4
2017-Nov-16 20:01N 39°34' W 076°06'0 0.0
2017-Nov-16 19:30N 39°34' W 076°06'0 0.0
2017-Nov-16 19:00N 39°34' W 076°06'0 0.0
2017-Nov-16 18:31N 39°34' W 076°06'0 0.0
2017-Nov-16 18:01N 39°34' W 076°06'0 0.0
2017-Nov-16 17:30N 39°34' W 076°06'0 0.0
2017-Nov-16 17:01N 39°34' W 076°06'0 0.0
2017-Nov-16 16:31N 39°34' W 076°06'0 0.0
2017-Nov-16 16:01N 39°34' W 076°06'0 0.0
2017-Nov-16 15:31N 39°34' W 076°06'0 0.0
2017-Nov-16 15:01N 39°34' W 076°06'0 0.0
2017-Nov-16 14:30N 39°34' W 076°06'0 0.0
2017-Nov-16 14:01N 39°34' W 076°06'0 0.0
2017-Nov-16 13:30N 39°34' W 076°06'0 0.0
2017-Nov-16 13:01N 39°34' W 076°06'0 0.0
2017-Nov-16 12:30N 39°34' W 076°06'0 0.0
2017-Nov-16 12:00N 39°34' W 076°06'0 0.0
2017-Nov-16 11:30N 39°34' W 076°06'0 0.0
2017-Nov-16 11:01N 39°34' W 076°06'0 0.0
2017-Nov-16 10:31N 39°34' W 076°06'0 0.0
2017-Nov-16 10:01N 39°34' W 076°06'0 0.0
2017-Nov-16 09:31N 39°34' W 076°06'0 0.0
2017-Nov-16 09:00N 39°34' W 076°06'0 0.0
2017-Nov-16 08:31N 39°34' W 076°06'0 0.3
2017-Nov-16 08:01N 39°34' W 076°06'3 6.0
2017-Nov-16 07:31N 39°31' W 076°05'3 5.6
2017-Nov-16 07:01N 39°29' W 076°04'3 5.8
2017-Nov-16 06:31N 39°26' W 076°02'3 5.6
2017-Nov-16 06:00N 39°24' W 076°04'3 5.3
2017-Nov-16 05:31N 39°22' W 076°07'3 5.2
2017-Nov-16 05:01N 39°21' W 076°10'3 5.1
2017-Nov-16 04:31N 39°19' W 076°12'3 4.9
2017-Nov-16 04:00N 39°17' W 076°14'3 5.4
2017-Nov-16 03:30N 39°14' W 076°14'15 5.8
2017-Nov-16 00:54N 39°01' W 076°22'3 6.2
2017-Nov-16 00:25N 38°58' W 076°23'2 5.9
2017-Nov-16 00:00N 38°55' W 076°24'5 6.1
2017-Nov-15 23:10N 38°50' W 076°24'5 0.2
2017-Nov-14 22:55N 38°46' W 076°21'0 0.0
2017-Nov-14 08:26N 38°46' W 076°21'0 0.0
2017-Nov-14 07:56N 38°46' W 076°21'0 0.0
2017-Nov-14 07:30N 38°46' W 076°21'0 0.0
2017-Nov-14 07:00N 38°46' W 076°21'0 0.0
2017-Nov-14 06:28N 38°46' W 076°21'0 0.0
2017-Nov-14 06:00N 38°46' W 076°21'0 0.0
2017-Nov-14 05:29N 38°46' W 076°21'0 0.0
2017-Nov-14 05:00N 38°46' W 076°21'0 0.0
2017-Nov-14 04:30N 38°46' W 076°21'0 0.0
2017-Nov-14 03:55N 38°46' W 076°21'0 0.0
2017-Nov-14 03:26N 38°46' W 076°21'0 0.0
2017-Nov-14 02:43N 38°46' W 076°21'0 0.0
2017-Nov-14 02:15N 38°46' W 076°21'0 0.0
2017-Nov-14 01:58N 38°46' W 076°21'0 0.0
2017-Nov-14 01:30N 38°46' W 076°21'0 0.0
2017-Nov-14 00:55N 38°46' W 076°21'0 0.0
2017-Nov-14 00:26N 38°46' W 076°21'0 0.0
2017-Nov-13 23:58N 38°46' W 076°21'0 0.0
2017-Nov-12 12:43N 38°46' W 076°21'0 0.0
2017-Nov-12 12:30N 38°46' W 076°21'0 0.0
2017-Nov-12 10:32N 38°46' W 076°21'0 0.0
2017-Nov-12 10:03N 38°46' W 076°21'110 6.4
2017-Nov-11 16:50N 36°56' W 076°20'3 7.3
2017-Nov-11 16:29N 36°54' W 076°20'3 7.0
2017-Nov-11 16:00N 36°51' W 076°18'3 6.6
2017-Nov-11 15:30N 36°48' W 076°18'2 3.9
2017-Nov-11 15:01N 36°46' W 076°18'0 0.0
2017-Nov-11 14:30N 36°46' W 076°18'0 0.0
2017-Nov-11 14:01N 36°46' W 076°18'0 0.0
2017-Nov-11 13:31N 36°46' W 076°18'0 0.0
2017-Nov-11 13:00N 36°46' W 076°18'0 0.0
2017-Nov-11 12:31N 36°46' W 076°18'0 0.0
2017-Nov-11 12:01N 36°46' W 076°18'0 0.0
2017-Nov-11 11:30N 36°46' W 076°18'0 0.0
2017-Nov-11 11:00N 36°46' W 076°18'0 0.0
2017-Nov-11 10:31N 36°46' W 076°18'0 0.0
2017-Nov-11 10:00N 36°46' W 076°18'0 0.0
2017-Nov-11 09:30N 36°46' W 076°18'0 0.0
2017-Nov-11 09:00N 36°46' W 076°18'0 0.0
2017-Nov-11 08:31N 36°46' W 076°18'0 0.0
2017-Nov-11 08:00N 36°46' W 076°18'0 0.0
2017-Nov-11 07:31N 36°46' W 076°18'0 0.0
2017-Nov-11 07:01N 36°46' W 076°18'0 0.0
2017-Nov-11 06:30N 36°46' W 076°18'0 0.0
2017-Nov-11 06:01N 36°46' W 076°18'0 0.0
2017-Nov-11 05:30N 36°46' W 076°18'0 0.0
2017-Nov-11 05:00N 36°46' W 076°18'0 0.0
2017-Nov-11 04:31N 36°46' W 076°18'0 0.0
2017-Nov-11 04:01N 36°46' W 076°18'0 0.0
2017-Nov-11 03:31N 36°46' W 076°18'0 0.0
2017-Nov-11 03:01N 36°46' W 076°18'0 0.0
2017-Nov-11 02:31N 36°46' W 076°18'0 0.0
2017-Nov-11 02:01N 36°46' W 076°18'0 0.0
2017-Nov-11 01:31N 36°46' W 076°18'0 0.0
2017-Nov-11 01:00N 36°46' W 076°18'0 0.0
2017-Nov-11 00:30N 36°46' W 076°18'0 0.0
2017-Nov-11 00:00N 36°46' W 076°18'0 0.0
2017-Nov-10 23:30N 36°46' W 076°18'0 0.0
2017-Nov-10 23:01N 36°46' W 076°18'0 0.0
2017-Nov-10 22:30N 36°46' W 076°18'0 0.0
2017-Nov-10 22:01N 36°46' W 076°18'0 0.0
2017-Nov-10 21:31N 36°46' W 076°18'0 0.0
2017-Nov-10 21:01N 36°46' W 076°18'0 0.0
2017-Nov-10 20:31N 36°46' W 076°18'0 0.0
2017-Nov-10 20:01N 36°46' W 076°18'0 0.0
2017-Nov-10 19:31N 36°46' W 076°18'0 0.0
2017-Nov-10 19:00N 36°46' W 076°18'0 0.0
2017-Nov-10 18:30N 36°46' W 076°18'0 0.0
2017-Nov-10 18:01N 36°46' W 076°18'0 0.0
2017-Nov-10 17:31N 36°46' W 076°18'0 0.0
2017-Nov-10 17:00N 36°46' W 076°18'0 0.0
2017-Nov-10 16:31N 36°46' W 076°18'0 0.0
2017-Nov-10 16:00N 36°46' W 076°18'0 0.0
2017-Nov-10 15:30N 36°46' W 076°18'0 0.0
2017-Nov-10 15:01N 36°46' W 076°18'0 0.1
2017-Nov-10 14:31N 36°46' W 076°18'0 0.0
2017-Nov-10 14:01N 36°46' W 076°18'0 0.0
2017-Nov-10 13:31N 36°46' W 076°18'0 0.0
2017-Nov-10 13:01N 36°46' W 076°18'0 0.0
2017-Nov-10 12:31N 36°46' W 076°18'0 0.0
2017-Nov-10 12:01N 36°46' W 076°18'0 0.0
2017-Nov-10 11:30N 36°46' W 076°18'0 0.0
2017-Nov-10 11:00N 36°46' W 076°18'0 0.0
2017-Nov-10 10:30N 36°46' W 076°18'0 0.0
2017-Nov-10 10:00N 36°46' W 076°18'0 0.0
2017-Nov-10 09:31N 36°46' W 076°18'0 0.0
2017-Nov-10 09:00N 36°46' W 076°18'0 0.0
2017-Nov-10 08:30N 36°46' W 076°18'0 0.0
2017-Nov-10 08:01N 36°46' W 076°18'0 0.0
2017-Nov-10 07:30N 36°46' W 076°18'0 0.0
2017-Nov-10 07:00N 36°46' W 076°18'0 0.0
2017-Nov-10 06:30N 36°46' W 076°18'0 0.0
2017-Nov-10 06:01N 36°46' W 076°18'0 0.0
2017-Nov-10 05:31N 36°46' W 076°18'0 0.0
2017-Nov-10 05:01N 36°46' W 076°18'0 0.0
2017-Nov-10 04:31N 36°46' W 076°18'0 0.0
2017-Nov-10 04:01N 36°46' W 076°18'0 0.0
2017-Nov-10 03:31N 36°46' W 076°18'0 0.0
2017-Nov-10 03:01N 36°46' W 076°18'0 0.0
2017-Nov-10 02:30N 36°46' W 076°18'0 0.0
2017-Nov-10 02:00N 36°46' W 076°18'0 0.0
2017-Nov-10 01:31N 36°46' W 076°18'0 0.0
2017-Nov-10 01:01N 36°46' W 076°18'0 0.0
2017-Nov-10 00:31N 36°46' W 076°18'0 0.0
2017-Nov-10 00:00N 36°46' W 076°18'0 0.0
2017-Nov-09 23:30N 36°46' W 076°18'0 0.0
2017-Nov-09 23:00N 36°46' W 076°18'0 0.0
2017-Nov-09 22:30N 36°46' W 076°18'0 0.0
2017-Nov-09 22:00N 36°46' W 076°18'0 0.0
2017-Nov-09 21:30N 36°46' W 076°18'0 0.0
2017-Nov-09 21:00N 36°46' W 076°18'0 0.0
2017-Nov-09 20:30N 36°46' W 076°18'0 0.0
2017-Nov-09 19:59N 36°46' W 076°18'0 0.0
2017-Nov-09 19:31N 36°46' W 076°18'0 0.0
2017-Nov-09 19:00N 36°46' W 076°18'1 1.7
2017-Nov-09 18:30N 36°47' W 076°18'0 0.0
2017-Nov-09 18:01N 36°47' W 076°18'1 1.6
2017-Nov-09 17:30N 36°47' W 076°18'3 5.5
2017-Nov-09 17:01N 36°50' W 076°18'3 5.9
2017-Nov-09 16:30N 36°52' W 076°20'7 4.3
2017-Nov-09 14:52N 36°59' W 076°19'1 3.6
2017-Nov-09 14:30N 37°00' W 076°18'2 3.8
2017-Nov-09 14:00N 37°01' W 076°16'2 3.8
2017-Nov-09 13:30N 37°03' W 076°14'  
Track history (hours):
 
Tides and Currents Weather Stations Pressure Air Temp Water Temp Dewpoint Dewpoint Depression Visibility Wind Speed Wind Dir Waves Ship Positions

Dotti J

Owner: PRECON MARINE INC, CHESAPEAKE, VA. More information available from US FCC via Universal Licensing System and Coast Guard Vessel Documentation Center.

Last reported at 2017-Nov-18 15:09 UTC. Time now 2017-Nov-19 12:15 UTC.
Position N 38°47' W 076°22'.

Length 20 m; draft 2.9 m.

Type: Tug. MMSI: 366880470.

Date/timePositionNaut miles runAvg speedWind from/ knotsBaromVisibWave heightAir tempDewpointWater temp
2017-Nov-18 15:09N 38°47' W 076°22'0 0.0
2017-Nov-18 14:45N 38°47' W 076°22'0 0.0
2017-Nov-18 14:30N 38°47' W 076°22'0 0.0
2017-Nov-18 13:55N 38°47' W 076°22'0 0.0
2017-Nov-18 13:30N 38°47' W 076°22'1 0.3
2017-Nov-18 10:41N 38°46' W 076°21'0 0.0
2017-Nov-18 10:28N 38°46' W 076°21'0 0.0
2017-Nov-18 09:43N 38°46' W 076°21'5 0.8
2017-Nov-18 03:36N 38°50' W 076°24'2 6.6
2017-Nov-18 03:22N 38°52' W 076°24'3 6.7
2017-Nov-18 02:58N 38°55' W 076°24'3 6.7
2017-Nov-18 02:30N 38°58' W 076°23'3 6.4
2017-Nov-18 02:00N 39°01' W 076°23'3 6.0
2017-Nov-18 01:30N 39°04' W 076°21'3 5.9
2017-Nov-18 01:00N 39°07' W 076°20'3 5.5
2017-Nov-18 00:30N 39°09' W 076°19'3 5.2
2017-Nov-17 23:56N 39°12' W 076°17'9 4.8
2017-Nov-17 22:01N 39°20' W 076°12'0 5.0
2017-Nov-17 21:57N 39°20' W 076°11'2 5.2
2017-Nov-17 21:30N 39°21' W 076°09'3 5.5
2017-Nov-17 21:00N 39°23' W 076°06'3 5.6
2017-Nov-17 20:30N 39°25' W 076°03'3 5.6
2017-Nov-17 20:00N 39°27' W 076°02'3 5.7
2017-Nov-17 19:29N 39°29' W 076°05'3 6.1
2017-Nov-17 19:00N 39°32' W 076°05'2 4.6
2017-Nov-17 18:30N 39°34' W 076°06'0 0.0
2017-Nov-17 18:00N 39°34' W 076°06'0 0.1
2017-Nov-17 17:30N 39°34' W 076°06'0 0.0
2017-Nov-17 17:00N 39°34' W 076°06'0 0.0
2017-Nov-17 16:30N 39°34' W 076°06'0 0.0
2017-Nov-17 16:00N 39°34' W 076°06'0 0.0
2017-Nov-17 15:31N 39°34' W 076°06'0 0.0
2017-Nov-17 14:58N 39°34' W 076°06'0 0.0
2017-Nov-17 14:30N 39°34' W 076°06'0 0.0
2017-Nov-17 14:00N 39°34' W 076°06'0 0.0
2017-Nov-17 13:30N 39°34' W 076°06'0 0.0
2017-Nov-17 13:00N 39°34' W 076°06'0 0.0
2017-Nov-17 12:30N 39°34' W 076°06'0 0.0
2017-Nov-17 12:00N 39°34' W 076°06'0 0.0
2017-Nov-17 11:30N 39°34' W 076°06'0 0.0
2017-Nov-17 11:00N 39°34' W 076°06'0 0.0
2017-Nov-17 10:30N 39°34' W 076°06'0 0.0
2017-Nov-17 10:01N 39°34' W 076°06'0 0.0
2017-Nov-17 09:30N 39°34' W 076°06'0 0.0
2017-Nov-17 09:00N 39°34' W 076°06'0 0.0
2017-Nov-17 08:30N 39°34' W 076°06'0 0.0
2017-Nov-17 08:00N 39°34' W 076°06'0 0.0
2017-Nov-17 07:30N 39°34' W 076°06'0 0.0
2017-Nov-17 07:00N 39°34' W 076°06'0 0.0
2017-Nov-17 06:31N 39°34' W 076°06'0 0.0
2017-Nov-17 06:00N 39°34' W 076°06'0 0.0
2017-Nov-17 05:30N 39°34' W 076°06'0 0.0
2017-Nov-17 05:00N 39°34' W 076°06'0 0.0
2017-Nov-17 04:30N 39°34' W 076°06'0 0.0
2017-Nov-17 04:00N 39°34' W 076°06'0 0.0
2017-Nov-17 03:30N 39°34' W 076°06'0 0.0
2017-Nov-17 03:00N 39°34' W 076°06'0 0.0
2017-Nov-17 02:30N 39°34' W 076°06'0 0.0
2017-Nov-16 22:30N 39°34' W 076°06'0 0.0
2017-Nov-16 22:01N 39°34' W 076°06'0 0.1
2017-Nov-16 21:30N 39°34' W 076°06'0 0.6
2017-Nov-16 21:01N 39°34' W 076°06'2 3.8
2017-Nov-16 20:30N 39°33' W 076°05'2 4.4
2017-Nov-16 20:01N 39°34' W 076°06'0 0.0
2017-Nov-16 19:30N 39°34' W 076°06'0 0.0
2017-Nov-16 19:00N 39°34' W 076°06'0 0.0
2017-Nov-16 18:31N 39°34' W 076°06'0 0.0
2017-Nov-16 18:01N 39°34' W 076°06'0 0.0
2017-Nov-16 17:30N 39°34' W 076°06'0 0.0
2017-Nov-16 17:01N 39°34' W 076°06'0 0.0
2017-Nov-16 16:31N 39°34' W 076°06'0 0.0
2017-Nov-16 16:01N 39°34' W 076°06'0 0.0
2017-Nov-16 15:31N 39°34' W 076°06'0 0.0
2017-Nov-16 15:01N 39°34' W 076°06'0 0.0
2017-Nov-16 14:30N 39°34' W 076°06'0 0.0
2017-Nov-16 14:01N 39°34' W 076°06'0 0.0
2017-Nov-16 13:30N 39°34' W 076°06'0 0.0
2017-Nov-16 13:01N 39°34' W 076°06'0 0.0
2017-Nov-16 12:30N 39°34' W 076°06'0 0.0
2017-Nov-16 12:00N 39°34' W 076°06'0 0.0
2017-Nov-16 11:30N 39°34' W 076°06'0 0.0
2017-Nov-16 11:01N 39°34' W 076°06'0 0.0
2017-Nov-16 10:31N 39°34' W 076°06'0 0.0
2017-Nov-16 10:01N 39°34' W 076°06'0 0.0
2017-Nov-16 09:31N 39°34' W 076°06'0 0.0
2017-Nov-16 09:00N 39°34' W 076°06'0 0.0
2017-Nov-16 08:31N 39°34' W 076°06'0 0.3
2017-Nov-16 08:01N 39°34' W 076°06'3 6.0
2017-Nov-16 07:31N 39°31' W 076°05'3 5.6
2017-Nov-16 07:01N 39°29' W 076°04'3 5.8
2017-Nov-16 06:31N 39°26' W 076°02'3 5.6
2017-Nov-16 06:00N 39°24' W 076°04'3 5.3
2017-Nov-16 05:31N 39°22' W 076°07'3 5.2
2017-Nov-16 05:01N 39°21' W 076°10'3 5.1
2017-Nov-16 04:31N 39°19' W 076°12'3 4.9
2017-Nov-16 04:00N 39°17' W 076°14'3 5.4
2017-Nov-16 03:30N 39°14' W 076°14'15 5.8
2017-Nov-16 00:54N 39°01' W 076°22'3 6.2
2017-Nov-16 00:25N 38°58' W 076°23'2 5.9
2017-Nov-16 00:00N 38°55' W 076°24'5 6.1
2017-Nov-15 23:10N 38°50' W 076°24'5 0.2
2017-Nov-14 22:55N 38°46' W 076°21'0 0.0
2017-Nov-14 08:26N 38°46' W 076°21'0 0.0
2017-Nov-14 07:56N 38°46' W 076°21'0 0.0
2017-Nov-14 07:30N 38°46' W 076°21'0 0.0
2017-Nov-14 07:00N 38°46' W 076°21'0 0.0
2017-Nov-14 06:28N 38°46' W 076°21'0 0.0
2017-Nov-14 06:00N 38°46' W 076°21'0 0.0
2017-Nov-14 05:29N 38°46' W 076°21'0 0.0
2017-Nov-14 05:00N 38°46' W 076°21'0 0.0
2017-Nov-14 04:30N 38°46' W 076°21'0 0.0
2017-Nov-14 03:55N 38°46' W 076°21'0 0.0
2017-Nov-14 03:26N 38°46' W 076°21'0 0.0
2017-Nov-14 02:43N 38°46' W 076°21'0 0.0
2017-Nov-14 02:15N 38°46' W 076°21'0 0.0
2017-Nov-14 01:58N 38°46' W 076°21'0 0.0
2017-Nov-14 01:30N 38°46' W 076°21'0 0.0
2017-Nov-14 00:55N 38°46' W 076°21'0 0.0
2017-Nov-14 00:26N 38°46' W 076°21'0 0.0
2017-Nov-13 23:58N 38°46' W 076°21'0 0.0
2017-Nov-12 12:43N 38°46' W 076°21'0 0.0
2017-Nov-12 12:30N 38°46' W 076°21'0 0.0
2017-Nov-12 10:32N 38°46' W 076°21'0 0.0
2017-Nov-12 10:03N 38°46' W 076°21'110 6.4
2017-Nov-11 16:50N 36°56' W 076°20'3 7.3
2017-Nov-11 16:29N 36°54' W 076°20'3 7.0
2017-Nov-11 16:00N 36°51' W 076°18'3 6.6
2017-Nov-11 15:30N 36°48' W 076°18'2 3.9
2017-Nov-11 15:01N 36°46' W 076°18'0 0.0
2017-Nov-11 14:30N 36°46' W 076°18'0 0.0
2017-Nov-11 14:01N 36°46' W 076°18'0 0.0
2017-Nov-11 13:31N 36°46' W 076°18'0 0.0
2017-Nov-11 13:00N 36°46' W 076°18'0 0.0
2017-Nov-11 12:31N 36°46' W 076°18'0 0.0
2017-Nov-11 12:01N 36°46' W 076°18'0 0.0
2017-Nov-11 11:30N 36°46' W 076°18'0 0.0
2017-Nov-11 11:00N 36°46' W 076°18'0 0.0
2017-Nov-11 10:31N 36°46' W 076°18'0 0.0
2017-Nov-11 10:00N 36°46' W 076°18'0 0.0
2017-Nov-11 09:30N 36°46' W 076°18'0 0.0
2017-Nov-11 09:00N 36°46' W 076°18'0 0.0
2017-Nov-11 08:31N 36°46' W 076°18'0 0.0
2017-Nov-11 08:00N 36°46' W 076°18'0 0.0
2017-Nov-11 07:31N 36°46' W 076°18'0 0.0
2017-Nov-11 07:01N 36°46' W 076°18'0 0.0
2017-Nov-11 06:30N 36°46' W 076°18'0 0.0
2017-Nov-11 06:01N 36°46' W 076°18'0 0.0
2017-Nov-11 05:30N 36°46' W 076°18'0 0.0
2017-Nov-11 05:00N 36°46' W 076°18'0 0.0
2017-Nov-11 04:31N 36°46' W 076°18'0 0.0
2017-Nov-11 04:01N 36°46' W 076°18'0 0.0
2017-Nov-11 03:31N 36°46' W 076°18'0 0.0
2017-Nov-11 03:01N 36°46' W 076°18'0 0.0
2017-Nov-11 02:31N 36°46' W 076°18'0 0.0
2017-Nov-11 02:01N 36°46' W 076°18'0 0.0
2017-Nov-11 01:31N 36°46' W 076°18'0 0.0
2017-Nov-11 01:00N 36°46' W 076°18'0 0.0
2017-Nov-11 00:30N 36°46' W 076°18'0 0.0
2017-Nov-11 00:00N 36°46' W 076°18'0 0.0
2017-Nov-10 23:30N 36°46' W 076°18'0 0.0
2017-Nov-10 23:01N 36°46' W 076°18'0 0.0
2017-Nov-10 22:30N 36°46' W 076°18'0 0.0
2017-Nov-10 22:01N 36°46' W 076°18'0 0.0
2017-Nov-10 21:31N 36°46' W 076°18'0 0.0
2017-Nov-10 21:01N 36°46' W 076°18'0 0.0
2017-Nov-10 20:31N 36°46' W 076°18'0 0.0
2017-Nov-10 20:01N 36°46' W 076°18'0 0.0
2017-Nov-10 19:31N 36°46' W 076°18'0 0.0
2017-Nov-10 19:00N 36°46' W 076°18'0 0.0
2017-Nov-10 18:30N 36°46' W 076°18'0 0.0
2017-Nov-10 18:01N 36°46' W 076°18'0 0.0
2017-Nov-10 17:31N 36°46' W 076°18'0 0.0
2017-Nov-10 17:00N 36°46' W 076°18'0 0.0
2017-Nov-10 16:31N 36°46' W 076°18'0 0.0
2017-Nov-10 16:00N 36°46' W 076°18'0 0.0
2017-Nov-10 15:30N 36°46' W 076°18'0 0.0
2017-Nov-10 15:01N 36°46' W 076°18'0 0.1
2017-Nov-10 14:31N 36°46' W 076°18'0 0.0
2017-Nov-10 14:01N 36°46' W 076°18'0 0.0
2017-Nov-10 13:31N 36°46' W 076°18'0 0.0
2017-Nov-10 13:01N 36°46' W 076°18'0 0.0
2017-Nov-10 12:31N 36°46' W 076°18'0 0.0
2017-Nov-10 12:01N 36°46' W 076°18'0 0.0
2017-Nov-10 11:30N 36°46' W 076°18'0 0.0
2017-Nov-10 11:00N 36°46' W 076°18'0 0.0
2017-Nov-10 10:30N 36°46' W 076°18'0 0.0
2017-Nov-10 10:00N 36°46' W 076°18'0 0.0
2017-Nov-10 09:31N 36°46' W 076°18'0 0.0
2017-Nov-10 09:00N 36°46' W 076°18'0 0.0
2017-Nov-10 08:30N 36°46' W 076°18'0 0.0
2017-Nov-10 08:01N 36°46' W 076°18'0 0.0
2017-Nov-10 07:30N 36°46' W 076°18'0 0.0
2017-Nov-10 07:00N 36°46' W 076°18'0 0.0
2017-Nov-10 06:30N 36°46' W 076°18'0 0.0
2017-Nov-10 06:01N 36°46' W 076°18'0 0.0
2017-Nov-10 05:31N 36°46' W 076°18'0 0.0
2017-Nov-10 05:01N 36°46' W 076°18'0 0.0
2017-Nov-10 04:31N 36°46' W 076°18'0 0.0
2017-Nov-10 04:01N 36°46' W 076°18'0 0.0
2017-Nov-10 03:31N 36°46' W 076°18'0 0.0
2017-Nov-10 03:01N 36°46' W 076°18'0 0.0
2017-Nov-10 02:30N 36°46' W 076°18'0 0.0
2017-Nov-10 02:00N 36°46' W 076°18'0 0.0
2017-Nov-10 01:31N 36°46' W 076°18'0 0.0
2017-Nov-10 01:01N 36°46' W 076°18'0 0.0
2017-Nov-10 00:31N 36°46' W 076°18'0 0.0
2017-Nov-10 00:00N 36°46' W 076°18'0 0.0
2017-Nov-09 23:30N 36°46' W 076°18'0 0.0
2017-Nov-09 23:00N 36°46' W 076°18'0 0.0
2017-Nov-09 22:30N 36°46' W 076°18'0 0.0
2017-Nov-09 22:00N 36°46' W 076°18'0 0.0
2017-Nov-09 21:30N 36°46' W 076°18'0 0.0
2017-Nov-09 21:00N 36°46' W 076°18'0 0.0
2017-Nov-09 20:30N 36°46' W 076°18'0 0.0
2017-Nov-09 19:59N 36°46' W 076°18'0 0.0
2017-Nov-09 19:31N 36°46' W 076°18'0 0.0
2017-Nov-09 19:00N 36°46' W 076°18'1 1.7
2017-Nov-09 18:30N 36°47' W 076°18'0 0.0
2017-Nov-09 18:01N 36°47' W 076°18'1 1.6
2017-Nov-09 17:30N 36°47' W 076°18'3 5.5
2017-Nov-09 17:01N 36°50' W 076°18'3 5.9
2017-Nov-09 16:30N 36°52' W 076°20'7 4.3
2017-Nov-09 14:52N 36°59' W 076°19'1 3.6
2017-Nov-09 14:30N 37°00' W 076°18'2 3.8
2017-Nov-09 14:00N 37°01' W 076°16'2 3.8
2017-Nov-09 13:30N 37°03' W 076°14'  

Dump ship's entire track history